sensor_id;sensor_type;location;lat;lon;timestamp;P1;durP1;ratioP1;P2;durP2;ratioP2
27333;SDS011;14817;57.104;-2.094;2023-02-28T00:01:05;2.50;;;1.15;;
27333;SDS011;14817;57.104;-2.094;2023-02-28T00:03:31;2.75;;;1.05;;
27333;SDS011;14817;57.104;-2.094;2023-02-28T00:06:02;5.28;;;1.88;;
27333;SDS011;14817;57.104;-2.094;2023-02-28T00:08:30;5.93;;;1.20;;
27333;SDS011;14817;57.104;-2.094;2023-02-28T00:11:04;4.32;;;1.67;;
27333;SDS011;14817;57.104;-2.094;2023-02-28T00:13:33;3.28;;;1.02;;
27333;SDS011;14817;57.104;-2.094;2023-02-28T00:16:06;2.70;;;0.95;;
27333;SDS011;14817;57.104;-2.094;2023-02-28T00:18:35;5.32;;;1.17;;
27333;SDS011;14817;57.104;-2.094;2023-02-28T00:21:03;4.00;;;1.40;;
27333;SDS011;14817;57.104;-2.094;2023-02-28T00:23:30;5.57;;;1.58;;
27333;SDS011;14817;57.104;-2.094;2023-02-28T00:25:57;3.30;;;1.52;;
27333;SDS011;14817;57.104;-2.094;2023-02-28T00:28:24;4.25;;;1.60;;
27333;SDS011;14817;57.104;-2.094;2023-02-28T00:30:51;10.27;;;1.38;;
27333;SDS011;14817;57.104;-2.094;2023-02-28T00:33:17;3.97;;;1.13;;
27333;SDS011;14817;57.104;-2.094;2023-02-28T00:35:46;4.80;;;1.60;;
27333;SDS011;14817;57.104;-2.094;2023-02-28T00:38:13;5.65;;;1.33;;
27333;SDS011;14817;57.104;-2.094;2023-02-28T00:40:41;6.75;;;1.58;;
27333;SDS011;14817;57.104;-2.094;2023-02-28T00:43:10;2.25;;;1.27;;
27333;SDS011;14817;57.104;-2.094;2023-02-28T00:45:37;5.30;;;1.20;;
27333;SDS011;14817;57.104;-2.094;2023-02-28T00:48:04;5.60;;;1.55;;
27333;SDS011;14817;57.104;-2.094;2023-02-28T00:50:31;6.43;;;1.52;;
27333;SDS011;14817;57.104;-2.094;2023-02-28T00:52:57;3.90;;;1.60;;
27333;SDS011;14817;57.104;-2.094;2023-02-28T00:55:25;6.03;;;1.27;;
27333;SDS011;14817;57.104;-2.094;2023-02-28T00:57:52;5.43;;;1.25;;
27333;SDS011;14817;57.104;-2.094;2023-02-28T01:00:19;7.22;;;1.33;;
27333;SDS011;14817;57.104;-2.094;2023-02-28T01:02:46;3.08;;;1.00;;
27333;SDS011;14817;57.104;-2.094;2023-02-28T01:05:13;5.90;;;1.23;;
27333;SDS011;14817;57.104;-2.094;2023-02-28T01:07:40;4.25;;;1.30;;
27333;SDS011;14817;57.104;-2.094;2023-02-28T01:10:07;3.85;;;1.38;;
27333;SDS011;14817;57.104;-2.094;2023-02-28T01:12:34;4.88;;;1.50;;
27333;SDS011;14817;57.104;-2.094;2023-02-28T01:15:01;2.95;;;1.48;;
27333;SDS011;14817;57.104;-2.094;2023-02-28T01:17:28;2.50;;;1.25;;
27333;SDS011;14817;57.104;-2.094;2023-02-28T01:19:55;3.58;;;1.10;;
27333;SDS011;14817;57.104;-2.094;2023-02-28T01:22:24;3.42;;;1.48;;
27333;SDS011;14817;57.104;-2.094;2023-02-28T01:24:50;3.35;;;1.75;;
27333;SDS011;14817;57.104;-2.094;2023-02-28T01:27:17;3.45;;;1.52;;
27333;SDS011;14817;57.104;-2.094;2023-02-28T01:29:44;3.60;;;1.50;;
27333;SDS011;14817;57.104;-2.094;2023-02-28T01:32:11;1.83;;;1.30;;
27333;SDS011;14817;57.104;-2.094;2023-02-28T01:34:38;3.72;;;1.85;;
27333;SDS011;14817;57.104;-2.094;2023-02-28T01:37:04;5.72;;;2.10;;
27333;SDS011;14817;57.104;-2.094;2023-02-28T01:39:31;4.10;;;1.80;;
27333;SDS011;14817;57.104;-2.094;2023-02-28T01:41:58;3.58;;;1.70;;
27333;SDS011;14817;57.104;-2.094;2023-02-28T01:47:35;6.20;;;2.00;;
27333;SDS011;14817;57.104;-2.094;2023-02-28T01:50:06;6.72;;;1.90;;
27333;SDS011;14817;57.104;-2.094;2023-02-28T01:52:38;3.05;;;1.65;;
27333;SDS011;14817;57.104;-2.094;2023-02-28T01:55:05;7.00;;;1.98;;
27333;SDS011;14817;57.104;-2.094;2023-02-28T01:57:35;4.18;;;1.70;;
27333;SDS011;14817;57.104;-2.094;2023-02-28T02:02:40;2.63;;;1.60;;
27333;SDS011;14817;57.104;-2.094;2023-02-28T02:05:17;4.15;;;1.50;;
27333;SDS011;14817;57.104;-2.094;2023-02-28T02:07:47;6.53;;;2.35;;
27333;SDS011;14817;57.104;-2.094;2023-02-28T02:10:18;4.13;;;1.75;;
27333;SDS011;14817;57.104;-2.094;2023-02-28T02:12:58;3.60;;;1.33;;
27333;SDS011;14817;57.104;-2.094;2023-02-28T02:18:22;3.33;;;1.48;;
27333;SDS011;14817;57.104;-2.094;2023-02-28T02:21:15;3.15;;;1.67;;
27333;SDS011;14817;57.104;-2.094;2023-02-28T02:29:24;6.82;;;1.88;;
27333;SDS011;14817;57.104;-2.094;2023-02-28T02:32:22;2.13;;;1.00;;
27333;SDS011;14817;57.104;-2.094;2023-02-28T02:35:23;3.22;;;1.17;;
27333;SDS011;14817;57.104;-2.094;2023-02-28T02:40:50;2.58;;;1.17;;
27333;SDS011;14817;57.104;-2.094;2023-02-28T02:46:22;2.17;;;1.30;;
27333;SDS011;14817;57.104;-2.094;2023-02-28T02:48:54;1.58;;;1.00;;
27333;SDS011;14817;57.104;-2.094;2023-02-28T02:51:23;2.58;;;1.50;;
27333;SDS011;14817;57.104;-2.094;2023-02-28T02:53:56;3.17;;;1.48;;
27333;SDS011;14817;57.104;-2.094;2023-02-28T02:56:42;4.43;;;1.17;;
27333;SDS011;14817;57.104;-2.094;2023-02-28T02:59:13;1.65;;;1.20;;
27333;SDS011;14817;57.104;-2.094;2023-02-28T03:01:52;1.55;;;1.10;;
27333;SDS011;14817;57.104;-2.094;2023-02-28T03:04:24;2.25;;;0.90;;
27333;SDS011;14817;57.104;-2.094;2023-02-28T03:06:54;1.85;;;0.98;;
27333;SDS011;14817;57.104;-2.094;2023-02-28T03:09:24;1.92;;;1.15;;
27333;SDS011;14817;57.104;-2.094;2023-02-28T03:11:53;1.00;;;0.82;;
27333;SDS011;14817;57.104;-2.094;2023-02-28T03:20:04;2.47;;;1.17;;
27333;SDS011;14817;57.104;-2.094;2023-02-28T03:22:52;2.08;;;1.00;;
27333;SDS011;14817;57.104;-2.094;2023-02-28T03:31:30;1.88;;;0.90;;
27333;SDS011;14817;57.104;-2.094;2023-02-28T03:34:09;1.25;;;1.10;;
27333;SDS011;14817;57.104;-2.094;2023-02-28T03:36:44;1.50;;;0.90;;
27333;SDS011;14817;57.104;-2.094;2023-02-28T03:39:16;0.73;;;0.70;;
27333;SDS011;14817;57.104;-2.094;2023-02-28T03:41:51;2.42;;;0.90;;
27333;SDS011;14817;57.104;-2.094;2023-02-28T03:44:29;2.28;;;1.25;;
27333;SDS011;14817;57.104;-2.094;2023-02-28T03:47:05;1.55;;;1.00;;
27333;SDS011;14817;57.104;-2.094;2023-02-28T03:49:36;1.30;;;1.17;;
27333;SDS011;14817;57.104;-2.094;2023-02-28T03:52:27;2.30;;;1.00;;
27333;SDS011;14817;57.104;-2.094;2023-02-28T03:55:00;2.20;;;1.30;;
27333;SDS011;14817;57.104;-2.094;2023-02-28T04:00:17;1.13;;;0.93;;
27333;SDS011;14817;57.104;-2.094;2023-02-28T04:02:48;1.92;;;1.20;;
27333;SDS011;14817;57.104;-2.094;2023-02-28T04:05:19;3.08;;;1.50;;
27333;SDS011;14817;57.104;-2.094;2023-02-28T04:07:47;4.45;;;1.40;;
27333;SDS011;14817;57.104;-2.094;2023-02-28T04:10:15;3.08;;;1.55;;
27333;SDS011;14817;57.104;-2.094;2023-02-28T04:12:42;2.10;;;1.17;;
27333;SDS011;14817;57.104;-2.094;2023-02-28T04:15:08;2.08;;;1.17;;
27333;SDS011;14817;57.104;-2.094;2023-02-28T04:17:37;3.08;;;1.38;;
27333;SDS011;14817;57.104;-2.094;2023-02-28T04:20:04;2.45;;;1.25;;
27333;SDS011;14817;57.104;-2.094;2023-02-28T04:22:35;1.95;;;1.30;;
27333;SDS011;14817;57.104;-2.094;2023-02-28T04:25:03;1.20;;;1.10;;
27333;SDS011;14817;57.104;-2.094;2023-02-28T04:27:32;3.25;;;1.00;;
27333;SDS011;14817;57.104;-2.094;2023-02-28T04:29:59;1.52;;;1.10;;
27333;SDS011;14817;57.104;-2.094;2023-02-28T04:32:26;3.88;;;1.40;;
27333;SDS011;14817;57.104;-2.094;2023-02-28T04:34:53;3.83;;;1.30;;
27333;SDS011;14817;57.104;-2.094;2023-02-28T04:37:19;1.98;;;1.40;;
27333;SDS011;14817;57.104;-2.094;2023-02-28T04:39:46;2.05;;;1.42;;
27333;SDS011;14817;57.104;-2.094;2023-02-28T04:42:13;2.38;;;1.15;;
27333;SDS011;14817;57.104;-2.094;2023-02-28T04:44:40;4.30;;;1.60;;
27333;SDS011;14817;57.104;-2.094;2023-02-28T04:47:07;1.90;;;1.38;;
27333;SDS011;14817;57.104;-2.094;2023-02-28T04:49:34;2.50;;;1.40;;
27333;SDS011;14817;57.104;-2.094;2023-02-28T04:52:01;1.42;;;1.15;;
27333;SDS011;14817;57.104;-2.094;2023-02-28T04:54:28;1.90;;;1.17;;
27333;SDS011;14817;57.104;-2.094;2023-02-28T04:56:55;2.42;;;1.20;;
27333;SDS011;14817;57.104;-2.094;2023-02-28T04:59:22;1.90;;;1.25;;
27333;SDS011;14817;57.104;-2.094;2023-02-28T05:01:49;2.28;;;1.30;;
27333;SDS011;14817;57.104;-2.094;2023-02-28T05:04:16;2.00;;;1.38;;
27333;SDS011;14817;57.104;-2.094;2023-02-28T05:06:43;3.15;;;1.08;;
27333;SDS011;14817;57.104;-2.094;2023-02-28T05:09:11;1.20;;;1.10;;
27333;SDS011;14817;57.104;-2.094;2023-02-28T05:11:38;2.90;;;1.08;;
27333;SDS011;14817;57.104;-2.094;2023-02-28T05:14:10;2.78;;;1.60;;
27333;SDS011;14817;57.104;-2.094;2023-02-28T05:16:39;2.05;;;0.95;;
27333;SDS011;14817;57.104;-2.094;2023-02-28T05:19:05;1.50;;;1.30;;
27333;SDS011;14817;57.104;-2.094;2023-02-28T05:21:33;1.70;;;1.30;;
27333;SDS011;14817;57.104;-2.094;2023-02-28T05:24:02;2.75;;;1.00;;
27333;SDS011;14817;57.104;-2.094;2023-02-28T05:26:33;1.92;;;1.00;;
27333;SDS011;14817;57.104;-2.094;2023-02-28T05:29:05;2.15;;;0.90;;
27333;SDS011;14817;57.104;-2.094;2023-02-28T05:31:33;1.60;;;0.70;;
27333;SDS011;14817;57.104;-2.094;2023-02-28T05:34:00;1.67;;;1.20;;
27333;SDS011;14817;57.104;-2.094;2023-02-28T05:36:27;2.10;;;1.17;;
27333;SDS011;14817;57.104;-2.094;2023-02-28T05:38:53;1.77;;;1.25;;
27333;SDS011;14817;57.104;-2.094;2023-02-28T05:41:20;1.35;;;1.13;;
27333;SDS011;14817;57.104;-2.094;2023-02-28T05:43:47;2.53;;;1.13;;
27333;SDS011;14817;57.104;-2.094;2023-02-28T05:46:15;1.27;;;0.95;;
27333;SDS011;14817;57.104;-2.094;2023-02-28T05:48:42;1.05;;;0.90;;
27333;SDS011;14817;57.104;-2.094;2023-02-28T05:51:13;3.67;;;1.20;;
27333;SDS011;14817;57.104;-2.094;2023-02-28T05:53:39;1.70;;;1.13;;
27333;SDS011;14817;57.104;-2.094;2023-02-28T05:56:06;1.30;;;1.00;;
27333;SDS011;14817;57.104;-2.094;2023-02-28T05:58:33;2.63;;;1.60;;
27333;SDS011;14817;57.104;-2.094;2023-02-28T06:01:11;1.60;;;1.40;;
27333;SDS011;14817;57.104;-2.094;2023-02-28T06:03:47;2.35;;;1.40;;
27333;SDS011;14817;57.104;-2.094;2023-02-28T06:06:13;1.80;;;1.30;;
27333;SDS011;14817;57.104;-2.094;2023-02-28T06:08:40;2.53;;;1.80;;
27333;SDS011;14817;57.104;-2.094;2023-02-28T06:11:09;2.17;;;1.60;;
27333;SDS011;14817;57.104;-2.094;2023-02-28T06:13:36;2.80;;;2.00;;
27333;SDS011;14817;57.104;-2.094;2023-02-28T06:16:03;3.10;;;1.63;;
27333;SDS011;14817;57.104;-2.094;2023-02-28T06:18:30;2.17;;;1.83;;
27333;SDS011;14817;57.104;-2.094;2023-02-28T06:20:56;2.85;;;1.70;;
27333;SDS011;14817;57.104;-2.094;2023-02-28T06:23:23;1.80;;;1.70;;
27333;SDS011;14817;57.104;-2.094;2023-02-28T06:25:50;2.92;;;1.85;;
27333;SDS011;14817;57.104;-2.094;2023-02-28T06:28:17;2.83;;;2.25;;
27333;SDS011;14817;57.104;-2.094;2023-02-28T06:30:43;3.97;;;2.15;;
27333;SDS011;14817;57.104;-2.094;2023-02-28T06:33:11;3.38;;;1.95;;
27333;SDS011;14817;57.104;-2.094;2023-02-28T06:35:38;1.73;;;1.58;;
27333;SDS011;14817;57.104;-2.094;2023-02-28T06:38:05;2.70;;;1.60;;
27333;SDS011;14817;57.104;-2.094;2023-02-28T06:40:32;1.90;;;1.33;;
27333;SDS011;14817;57.104;-2.094;2023-02-28T06:43:01;1.33;;;1.15;;
27333;SDS011;14817;57.104;-2.094;2023-02-28T06:45:28;2.05;;;1.55;;
27333;SDS011;14817;57.104;-2.094;2023-02-28T06:47:55;4.53;;;2.95;;
27333;SDS011;14817;57.104;-2.094;2023-02-28T06:50:22;5.88;;;1.92;;
27333;SDS011;14817;57.104;-2.094;2023-02-28T06:52:49;2.08;;;1.88;;
27333;SDS011;14817;57.104;-2.094;2023-02-28T06:55:20;3.90;;;1.63;;
27333;SDS011;14817;57.104;-2.094;2023-02-28T06:57:47;3.13;;;2.22;;
27333;SDS011;14817;57.104;-2.094;2023-02-28T07:00:14;2.75;;;2.42;;
27333;SDS011;14817;57.104;-2.094;2023-02-28T07:02:41;3.10;;;2.15;;
27333;SDS011;14817;57.104;-2.094;2023-02-28T07:05:08;2.22;;;1.63;;
27333;SDS011;14817;57.104;-2.094;2023-02-28T07:07:34;2.20;;;1.95;;
27333;SDS011;14817;57.104;-2.094;2023-02-28T07:10:04;3.42;;;1.75;;
27333;SDS011;14817;57.104;-2.094;2023-02-28T07:12:31;3.58;;;2.13;;
27333;SDS011;14817;57.104;-2.094;2023-02-28T07:14:58;3.13;;;2.35;;
27333;SDS011;14817;57.104;-2.094;2023-02-28T07:17:25;4.85;;;3.00;;
27333;SDS011;14817;57.104;-2.094;2023-02-28T07:19:52;2.80;;;2.17;;
27333;SDS011;14817;57.104;-2.094;2023-02-28T07:22:19;2.80;;;2.47;;
27333;SDS011;14817;57.104;-2.094;2023-02-28T07:24:46;2.80;;;1.90;;
27333;SDS011;14817;57.104;-2.094;2023-02-28T07:27:12;2.20;;;1.65;;
27333;SDS011;14817;57.104;-2.094;2023-02-28T07:29:52;4.50;;;1.83;;
27333;SDS011;14817;57.104;-2.094;2023-02-28T07:32:19;3.78;;;1.90;;
27333;SDS011;14817;57.104;-2.094;2023-02-28T07:34:46;2.17;;;1.80;;
27333;SDS011;14817;57.104;-2.094;2023-02-28T07:37:13;2.50;;;1.88;;
27333;SDS011;14817;57.104;-2.094;2023-02-28T07:39:41;1.88;;;1.50;;
27333;SDS011;14817;57.104;-2.094;2023-02-28T07:42:08;2.40;;;1.92;;
27333;SDS011;14817;57.104;-2.094;2023-02-28T07:44:38;1.80;;;1.55;;
27333;SDS011;14817;57.104;-2.094;2023-02-28T07:47:07;4.88;;;2.20;;
27333;SDS011;14817;57.104;-2.094;2023-02-28T07:49:38;3.47;;;2.30;;
27333;SDS011;14817;57.104;-2.094;2023-02-28T07:52:05;4.88;;;2.00;;
27333;SDS011;14817;57.104;-2.094;2023-02-28T07:54:33;2.15;;;1.67;;
27333;SDS011;14817;57.104;-2.094;2023-02-28T07:57:00;1.55;;;1.20;;
27333;SDS011;14817;57.104;-2.094;2023-02-28T07:59:27;2.58;;;1.80;;
27333;SDS011;14817;57.104;-2.094;2023-02-28T08:01:57;2.25;;;1.60;;
27333;SDS011;14817;57.104;-2.094;2023-02-28T08:04:25;3.22;;;1.70;;
27333;SDS011;14817;57.104;-2.094;2023-02-28T08:06:52;1.38;;;1.00;;
27333;SDS011;14817;57.104;-2.094;2023-02-28T08:09:19;2.20;;;1.10;;
27333;SDS011;14817;57.104;-2.094;2023-02-28T08:11:46;2.78;;;1.10;;
27333;SDS011;14817;57.104;-2.094;2023-02-28T08:14:13;1.85;;;1.10;;
27333;SDS011;14817;57.104;-2.094;2023-02-28T08:16:40;1.02;;;0.95;;
27333;SDS011;14817;57.104;-2.094;2023-02-28T08:19:06;3.58;;;1.13;;
27333;SDS011;14817;57.104;-2.094;2023-02-28T08:21:33;2.97;;;0.93;;
27333;SDS011;14817;57.104;-2.094;2023-02-28T08:24:00;2.83;;;1.00;;
27333;SDS011;14817;57.104;-2.094;2023-02-28T08:26:26;1.15;;;0.98;;
27333;SDS011;14817;57.104;-2.094;2023-02-28T08:28:53;1.63;;;1.13;;
27333;SDS011;14817;57.104;-2.094;2023-02-28T08:31:22;2.35;;;1.65;;
27333;SDS011;14817;57.104;-2.094;2023-02-28T08:33:49;2.88;;;1.10;;
27333;SDS011;14817;57.104;-2.094;2023-02-28T08:36:18;3.47;;;1.58;;
27333;SDS011;14817;57.104;-2.094;2023-02-28T08:38:45;4.05;;;1.80;;
27333;SDS011;14817;57.104;-2.094;2023-02-28T08:41:12;2.80;;;1.20;;
27333;SDS011;14817;57.104;-2.094;2023-02-28T08:43:40;2.75;;;1.38;;
27333;SDS011;14817;57.104;-2.094;2023-02-28T08:46:07;1.83;;;1.17;;
27333;SDS011;14817;57.104;-2.094;2023-02-28T08:48:38;2.75;;;1.60;;
27333;SDS011;14817;57.104;-2.094;2023-02-28T08:51:06;1.42;;;1.33;;
27333;SDS011;14817;57.104;-2.094;2023-02-28T08:53:36;2.15;;;1.40;;
27333;SDS011;14817;57.104;-2.094;2023-02-28T08:56:05;3.15;;;1.50;;
27333;SDS011;14817;57.104;-2.094;2023-02-28T08:58:34;2.15;;;1.65;;
27333;SDS011;14817;57.104;-2.094;2023-02-28T09:01:07;3.28;;;1.58;;
27333;SDS011;14817;57.104;-2.094;2023-02-28T09:03:38;3.10;;;1.42;;
27333;SDS011;14817;57.104;-2.094;2023-02-28T09:06:08;1.95;;;1.10;;
27333;SDS011;14817;57.104;-2.094;2023-02-28T09:08:35;1.95;;;1.27;;
27333;SDS011;14817;57.104;-2.094;2023-02-28T09:11:03;2.90;;;1.60;;
27333;SDS011;14817;57.104;-2.094;2023-02-28T09:13:30;2.22;;;1.50;;
27333;SDS011;14817;57.104;-2.094;2023-02-28T09:15:59;5.57;;;2.10;;
27333;SDS011;14817;57.104;-2.094;2023-02-28T09:18:27;4.93;;;1.63;;
27333;SDS011;14817;57.104;-2.094;2023-02-28T09:20:55;2.50;;;1.45;;
27333;SDS011;14817;57.104;-2.094;2023-02-28T09:23:24;2.75;;;1.70;;
27333;SDS011;14817;57.104;-2.094;2023-02-28T09:25:52;3.17;;;1.60;;
27333;SDS011;14817;57.104;-2.094;2023-02-28T09:28:20;3.10;;;1.50;;
27333;SDS011;14817;57.104;-2.094;2023-02-28T09:30:49;2.00;;;1.50;;
27333;SDS011;14817;57.104;-2.094;2023-02-28T09:33:17;3.05;;;1.60;;
27333;SDS011;14817;57.104;-2.094;2023-02-28T09:35:48;5.20;;;1.55;;
27333;SDS011;14817;57.104;-2.094;2023-02-28T09:38:16;2.65;;;1.70;;
27333;SDS011;14817;57.104;-2.094;2023-02-28T09:40:50;4.03;;;1.77;;
27333;SDS011;14817;57.104;-2.094;2023-02-28T09:43:21;4.35;;;1.45;;
27333;SDS011;14817;57.104;-2.094;2023-02-28T09:45:55;1.88;;;1.23;;
27333;SDS011;14817;57.104;-2.094;2023-02-28T09:48:28;1.55;;;0.95;;
27333;SDS011;14817;57.104;-2.094;2023-02-28T09:51:05;1.75;;;0.93;;
27333;SDS011;14817;57.104;-2.094;2023-02-28T09:53:42;2.72;;;1.30;;
27333;SDS011;14817;57.104;-2.094;2023-02-28T09:56:15;1.85;;;1.00;;
27333;SDS011;14817;57.104;-2.094;2023-02-28T10:04:16;1.55;;;0.90;;
27333;SDS011;14817;57.104;-2.094;2023-02-28T10:06:51;1.90;;;0.90;;
27333;SDS011;14817;57.104;-2.094;2023-02-28T10:09:26;2.92;;;1.13;;
27333;SDS011;14817;57.104;-2.094;2023-02-28T10:11:57;1.25;;;0.77;;
27333;SDS011;14817;57.104;-2.094;2023-02-28T10:14:31;1.35;;;0.80;;
27333;SDS011;14817;57.104;-2.094;2023-02-28T10:17:14;1.42;;;0.70;;
27333;SDS011;14817;57.104;-2.094;2023-02-28T10:19:56;0.75;;;0.63;;
27333;SDS011;14817;57.104;-2.094;2023-02-28T10:24:58;3.30;;;0.90;;
27333;SDS011;14817;57.104;-2.094;2023-02-28T10:27:32;1.38;;;0.70;;
27333;SDS011;14817;57.104;-2.094;2023-02-28T10:29:59;1.15;;;0.70;;
27333;SDS011;14817;57.104;-2.094;2023-02-28T10:32:32;2.25;;;1.05;;
27333;SDS011;14817;57.104;-2.094;2023-02-28T10:37:40;2.15;;;0.65;;
27333;SDS011;14817;57.104;-2.094;2023-02-28T10:45:54;0.75;;;0.65;;
27333;SDS011;14817;57.104;-2.094;2023-02-28T10:48:29;1.20;;;0.60;;
27333;SDS011;14817;57.104;-2.094;2023-02-28T10:51:07;1.70;;;0.80;;
27333;SDS011;14817;57.104;-2.094;2023-02-28T10:56:26;1.98;;;0.75;;
27333;SDS011;14817;57.104;-2.094;2023-02-28T10:59:05;1.27;;;0.55;;
27333;SDS011;14817;57.104;-2.094;2023-02-28T11:01:52;2.10;;;0.70;;
27333;SDS011;14817;57.104;-2.094;2023-02-28T11:06:59;1.88;;;0.55;;
27333;SDS011;14817;57.104;-2.094;2023-02-28T11:09:48;1.92;;;0.40;;
27333;SDS011;14817;57.104;-2.094;2023-02-28T11:12:20;2.03;;;0.47;;
27333;SDS011;14817;57.104;-2.094;2023-02-28T11:15:21;4.43;;;0.43;;
27333;SDS011;14817;57.104;-2.094;2023-02-28T11:18:01;0.90;;;0.40;;
27333;SDS011;14817;57.104;-2.094;2023-02-28T11:20:38;2.63;;;0.50;;
27333;SDS011;14817;57.104;-2.094;2023-02-28T11:23:05;3.10;;;0.40;;
27333;SDS011;14817;57.104;-2.094;2023-02-28T11:25:40;1.90;;;0.50;;
27333;SDS011;14817;57.104;-2.094;2023-02-28T11:28:24;7.00;;;0.88;;
27333;SDS011;14817;57.104;-2.094;2023-02-28T11:31:09;3.53;;;0.60;;
27333;SDS011;14817;57.104;-2.094;2023-02-28T11:33:50;2.10;;;1.00;;
27333;SDS011;14817;57.104;-2.094;2023-02-28T11:38:51;3.25;;;0.60;;
27333;SDS011;14817;57.104;-2.094;2023-02-28T11:52:35;2.58;;;0.40;;
27333;SDS011;14817;57.104;-2.094;2023-02-28T12:03:15;2.58;;;0.75;;
27333;SDS011;14817;57.104;-2.094;2023-02-28T12:11:55;1.30;;;0.52;;
27333;SDS011;14817;57.104;-2.094;2023-02-28T12:17:17;4.55;;;0.93;;
27333;SDS011;14817;57.104;-2.094;2023-02-28T12:19:58;2.30;;;0.95;;
27333;SDS011;14817;57.104;-2.094;2023-02-28T12:22:30;2.35;;;0.80;;
27333;SDS011;14817;57.104;-2.094;2023-02-28T12:27:36;2.83;;;0.55;;
27333;SDS011;14817;57.104;-2.094;2023-02-28T12:32:58;3.22;;;0.70;;
27333;SDS011;14817;57.104;-2.094;2023-02-28T12:35:36;3.75;;;0.73;;
27333;SDS011;14817;57.104;-2.094;2023-02-28T12:38:14;4.38;;;0.90;;
27333;SDS011;14817;57.104;-2.094;2023-02-28T12:40:50;8.20;;;2.70;;
27333;SDS011;14817;57.104;-2.094;2023-02-28T12:43:21;6.80;;;2.55;;
27333;SDS011;14817;57.104;-2.094;2023-02-28T12:45:56;3.85;;;1.00;;
27333;SDS011;14817;57.104;-2.094;2023-02-28T12:48:43;5.45;;;1.17;;
27333;SDS011;14817;57.104;-2.094;2023-02-28T12:51:13;5.63;;;1.10;;
27333;SDS011;14817;57.104;-2.094;2023-02-28T12:54:07;2.92;;;1.35;;
27333;SDS011;14817;57.104;-2.094;2023-02-28T12:58:59;4.70;;;1.10;;
27333;SDS011;14817;57.104;-2.094;2023-02-28T13:01:39;3.22;;;1.10;;
27333;SDS011;14817;57.104;-2.094;2023-02-28T13:09:22;6.32;;;0.82;;
27333;SDS011;14817;57.104;-2.094;2023-02-28T13:11:52;3.45;;;0.77;;
27333;SDS011;14817;57.104;-2.094;2023-02-28T13:14:35;5.07;;;1.40;;
27333;SDS011;14817;57.104;-2.094;2023-02-28T13:19:37;4.40;;;1.17;;
27333;SDS011;14817;57.104;-2.094;2023-02-28T13:22:05;6.28;;;1.23;;
27333;SDS011;14817;57.104;-2.094;2023-02-28T13:24:45;5.57;;;1.40;;
27333;SDS011;14817;57.104;-2.094;2023-02-28T13:29:44;7.45;;;1.55;;
27333;SDS011;14817;57.104;-2.094;2023-02-28T13:34:38;6.70;;;1.83;;
27333;SDS011;14817;57.104;-2.094;2023-02-28T13:37:35;3.85;;;1.42;;
27333;SDS011;14817;57.104;-2.094;2023-02-28T13:42:46;4.45;;;1.70;;
27333;SDS011;14817;57.104;-2.094;2023-02-28T13:45:26;5.78;;;1.85;;
27333;SDS011;14817;57.104;-2.094;2023-02-28T13:48:14;7.10;;;1.85;;
27333;SDS011;14817;57.104;-2.094;2023-02-28T13:50:45;4.72;;;1.70;;
27333;SDS011;14817;57.104;-2.094;2023-02-28T14:06:59;5.93;;;1.48;;
27333;SDS011;14817;57.104;-2.094;2023-02-28T14:10:16;9.85;;;1.58;;
27333;SDS011;14817;57.104;-2.094;2023-02-28T14:18:03;4.45;;;1.60;;
27333;SDS011;14817;57.104;-2.094;2023-02-28T14:20:39;4.13;;;1.30;;
27333;SDS011;14817;57.104;-2.094;2023-02-28T14:23:23;6.50;;;1.70;;
27333;SDS011;14817;57.104;-2.094;2023-02-28T14:28:45;4.03;;;1.65;;
27333;SDS011;14817;57.104;-2.094;2023-02-28T14:31:34;10.30;;;1.77;;
27333;SDS011;14817;57.104;-2.094;2023-02-28T14:36:58;6.43;;;1.75;;
27333;SDS011;14817;57.104;-2.094;2023-02-28T14:39:28;4.35;;;1.50;;
27333;SDS011;14817;57.104;-2.094;2023-02-28T14:41:57;6.00;;;1.30;;
27333;SDS011;14817;57.104;-2.094;2023-02-28T14:44:31;6.55;;;1.70;;
27333;SDS011;14817;57.104;-2.094;2023-02-28T14:47:02;7.93;;;1.50;;
27333;SDS011;14817;57.104;-2.094;2023-02-28T14:49:34;5.72;;;1.55;;
27333;SDS011;14817;57.104;-2.094;2023-02-28T14:52:12;5.45;;;1.30;;
27333;SDS011;14817;57.104;-2.094;2023-02-28T14:54:44;5.22;;;2.22;;
27333;SDS011;14817;57.104;-2.094;2023-02-28T14:57:24;3.53;;;0.80;;
27333;SDS011;14817;57.104;-2.094;2023-02-28T15:02:41;5.95;;;1.58;;
27333;SDS011;14817;57.104;-2.094;2023-02-28T15:07:44;3.38;;;1.48;;
27333;SDS011;14817;57.104;-2.094;2023-02-28T15:12:58;5.28;;;1.40;;
27333;SDS011;14817;57.104;-2.094;2023-02-28T15:21:23;10.05;;;1.77;;
27333;SDS011;14817;57.104;-2.094;2023-02-28T15:26:41;8.80;;;1.67;;
27333;SDS011;14817;57.104;-2.094;2023-02-28T15:29:12;9.75;;;2.17;;
27333;SDS011;14817;57.104;-2.094;2023-02-28T15:31:44;8.52;;;1.60;;
27333;SDS011;14817;57.104;-2.094;2023-02-28T15:34:27;3.33;;;1.20;;
27333;SDS011;14817;57.104;-2.094;2023-02-28T15:40:16;6.45;;;1.25;;
27333;SDS011;14817;57.104;-2.094;2023-02-28T15:42:57;4.63;;;1.30;;
27333;SDS011;14817;57.104;-2.094;2023-02-28T15:45:34;6.28;;;1.60;;
27333;SDS011;14817;57.104;-2.094;2023-02-28T15:53:45;4.55;;;1.10;;
27333;SDS011;14817;57.104;-2.094;2023-02-28T15:56:26;7.20;;;1.50;;
27333;SDS011;14817;57.104;-2.094;2023-02-28T15:59:05;10.23;;;1.67;;
27333;SDS011;14817;57.104;-2.094;2023-02-28T16:01:39;6.53;;;1.20;;
27333;SDS011;14817;57.104;-2.094;2023-02-28T16:04:16;5.18;;;1.83;;
27333;SDS011;14817;57.104;-2.094;2023-02-28T16:06:45;6.05;;;2.17;;
27333;SDS011;14817;57.104;-2.094;2023-02-28T16:09:14;5.22;;;1.42;;
27333;SDS011;14817;57.104;-2.094;2023-02-28T16:11:43;6.78;;;1.83;;
27333;SDS011;14817;57.104;-2.094;2023-02-28T16:14:22;5.53;;;2.05;;
27333;SDS011;14817;57.104;-2.094;2023-02-28T16:16:53;4.68;;;1.20;;
27333;SDS011;14817;57.104;-2.094;2023-02-28T16:19:21;4.50;;;1.55;;
27333;SDS011;14817;57.104;-2.094;2023-02-28T16:21:49;7.68;;;2.03;;
27333;SDS011;14817;57.104;-2.094;2023-02-28T16:24:17;5.63;;;1.05;;
27333;SDS011;14817;57.104;-2.094;2023-02-28T16:26:48;6.13;;;1.10;;
27333;SDS011;14817;57.104;-2.094;2023-02-28T16:29:23;6.97;;;1.08;;
27333;SDS011;14817;57.104;-2.094;2023-02-28T16:31:53;5.22;;;1.15;;
27333;SDS011;14817;57.104;-2.094;2023-02-28T16:34:20;6.80;;;1.23;;
27333;SDS011;14817;57.104;-2.094;2023-02-28T16:36:47;8.07;;;1.65;;
27333;SDS011;14817;57.104;-2.094;2023-02-28T16:39:15;6.45;;;2.28;;
27333;SDS011;14817;57.104;-2.094;2023-02-28T16:41:42;9.35;;;2.20;;
27333;SDS011;14817;57.104;-2.094;2023-02-28T16:44:13;10.18;;;2.13;;
27333;SDS011;14817;57.104;-2.094;2023-02-28T16:46:52;3.17;;;1.00;;
27333;SDS011;14817;57.104;-2.094;2023-02-28T16:49:19;2.40;;;0.85;;
27333;SDS011;14817;57.104;-2.094;2023-02-28T16:51:47;5.43;;;1.30;;
27333;SDS011;14817;57.104;-2.094;2023-02-28T16:54:14;7.47;;;1.23;;
27333;SDS011;14817;57.104;-2.094;2023-02-28T16:56:42;6.13;;;2.40;;
27333;SDS011;14817;57.104;-2.094;2023-02-28T16:59:11;4.93;;;2.43;;
27333;SDS011;14817;57.104;-2.094;2023-02-28T17:01:38;5.72;;;1.75;;
27333;SDS011;14817;57.104;-2.094;2023-02-28T17:04:06;4.07;;;1.55;;
27333;SDS011;14817;57.104;-2.094;2023-02-28T17:06:32;5.88;;;2.28;;
27333;SDS011;14817;57.104;-2.094;2023-02-28T17:08:59;4.07;;;1.10;;
27333;SDS011;14817;57.104;-2.094;2023-02-28T17:11:26;4.45;;;0.95;;
27333;SDS011;14817;57.104;-2.094;2023-02-28T17:13:53;7.38;;;1.90;;
27333;SDS011;14817;57.104;-2.094;2023-02-28T17:16:30;5.60;;;1.50;;
27333;SDS011;14817;57.104;-2.094;2023-02-28T17:19:00;10.80;;;2.30;;
27333;SDS011;14817;57.104;-2.094;2023-02-28T17:21:30;8.30;;;1.65;;
27333;SDS011;14817;57.104;-2.094;2023-02-28T17:23:57;8.63;;;2.15;;
27333;SDS011;14817;57.104;-2.094;2023-02-28T17:26:25;7.20;;;2.10;;
27333;SDS011;14817;57.104;-2.094;2023-02-28T17:28:52;2.33;;;1.20;;
27333;SDS011;14817;57.104;-2.094;2023-02-28T17:31:25;7.68;;;1.60;;
27333;SDS011;14817;57.104;-2.094;2023-02-28T17:33:53;3.97;;;0.88;;
27333;SDS011;14817;57.104;-2.094;2023-02-28T17:36:24;4.75;;;1.17;;